createdAt,value
2023-06-01T00:00:03.846Z,13.32
2023-06-01T00:02:37.098Z,14.43
2023-06-01T00:05:08.247Z,13.77
2023-06-01T00:07:40.201Z,12.90
2023-06-01T00:10:10.876Z,12.10
2023-06-01T00:12:38.674Z,12.50
2023-06-01T00:15:06.753Z,12.75
2023-06-01T00:17:36.427Z,13.80
2023-06-01T00:20:10.228Z,13.80
2023-06-01T00:22:40.231Z,14.98
2023-06-01T00:25:10.215Z,13.23
2023-06-01T00:27:38.185Z,13.43
2023-06-01T00:30:06.306Z,12.82
2023-06-01T00:32:34.517Z,12.80
2023-06-01T00:35:01.855Z,15.20
2023-06-01T00:37:30.000Z,15.15
2023-06-01T00:39:57.345Z,15.07
2023-06-01T00:42:25.693Z,14.90
2023-06-01T00:45:00.372Z,13.70
2023-06-01T00:47:28.580Z,15.48
2023-06-01T00:49:56.273Z,14.55
2023-06-01T00:52:25.607Z,13.98
2023-06-01T00:54:54.570Z,14.18
2023-06-01T00:57:27.726Z,14.90
2023-06-01T00:59:56.287Z,14.02
2023-06-01T01:02:26.241Z,13.50
2023-06-01T01:04:57.533Z,12.68
2023-06-01T01:07:48.889Z,13.77
2023-06-01T01:10:40.716Z,12.50
2023-06-01T01:13:14.907Z,12.93
2023-06-01T01:15:51.520Z,11.57
2023-06-01T01:18:46.638Z,13.43
2023-06-01T01:21:23.906Z,12.98
2023-06-01T01:24:42.780Z,12.50
2023-06-01T01:27:38.767Z,12.30
2023-06-01T01:30:08.831Z,11.85
2023-06-01T01:32:41.715Z,10.95
2023-06-01T01:35:11.499Z,12.57
2023-06-01T01:37:41.580Z,11.45
2023-06-01T01:40:11.768Z,11.90
2023-06-01T01:42:39.844Z,10.88
2023-06-01T01:45:09.438Z,9.98
2023-06-01T01:47:49.645Z,9.82
2023-06-01T01:50:21.313Z,9.20
2023-06-01T01:52:50.101Z,9.77
2023-06-01T01:55:19.847Z,9.38
2023-06-01T01:57:49.700Z,9.10
2023-06-01T02:00:18.665Z,10.13
2023-06-01T02:02:47.766Z,9.30
2023-06-01T02:05:17.298Z,9.32
2023-06-01T02:07:46.645Z,10.32
2023-06-01T02:10:14.298Z,10.02
2023-06-01T02:12:41.632Z,9.30
2023-06-01T02:15:09.581Z,9.20
2023-06-01T02:17:40.069Z,9.25
2023-06-01T02:20:13.624Z,8.45
2023-06-01T02:22:41.631Z,9.43
2023-06-01T02:25:10.656Z,9.50
2023-06-01T02:27:40.053Z,9.23
2023-06-01T02:30:09.667Z,9.95
2023-06-01T02:32:38.892Z,9.57
2023-06-01T02:35:08.744Z,9.95
2023-06-01T02:37:36.439Z,10.25
2023-06-01T02:40:29.986Z,10.20
2023-06-01T02:42:59.669Z,10.98
2023-06-01T02:45:28.938Z,11.98
2023-06-01T02:47:56.379Z,11.75
2023-06-01T02:50:24.892Z,10.90
2023-06-01T02:52:53.887Z,11.38
2023-06-01T02:55:40.501Z,11.73
2023-06-01T02:58:40.631Z,13.32
2023-06-01T03:01:19.659Z,13.82
2023-06-01T03:03:48.334Z,13.18
2023-06-01T03:06:19.065Z,13.68
2023-06-01T03:09:06.364Z,13.70
2023-06-01T03:11:50.764Z,13.90
2023-06-01T03:14:18.693Z,13.32
2023-06-01T03:16:48.083Z,14.70
2023-06-01T03:19:38.318Z,15.30
2023-06-01T03:22:16.023Z,13.80
2023-06-01T03:24:49.005Z,14.82
2023-06-01T03:27:20.325Z,16.90
2023-06-01T03:29:48.128Z,15.52
2023-06-01T03:32:15.990Z,16.77
2023-06-01T03:34:44.810Z,16.60
2023-06-01T03:37:13.344Z,13.77
2023-06-01T03:39:41.099Z,12.75
2023-06-01T03:42:12.338Z,13.82
2023-06-01T03:44:41.978Z,15.43
2023-06-01T03:47:10.087Z,14.73
2023-06-01T03:49:44.807Z,16.58
2023-06-01T03:52:13.770Z,16.50
2023-06-01T03:54:43.459Z,16.35
2023-06-01T03:57:26.054Z,18.90
2023-06-01T03:59:53.633Z,17.95
2023-06-01T04:02:23.345Z,22.45
2023-06-01T04:04:51.086Z,19.00
2023-06-01T04:07:23.015Z,21.95
2023-06-01T04:09:50.565Z,19.75
2023-06-01T04:12:18.350Z,18.88
2023-06-01T04:14:45.742Z,17.05
2023-06-01T04:17:13.437Z,16.95
2023-06-01T04:19:41.210Z,14.82
2023-06-01T04:22:11.581Z,13.57
2023-06-01T04:24:41.365Z,15.18
2023-06-01T04:27:09.355Z,15.60
2023-06-01T04:29:41.262Z,15.32
2023-06-01T04:32:09.393Z,16.48
2023-06-01T04:34:39.024Z,18.35
2023-06-01T04:37:07.715Z,15.82
2023-06-01T04:39:36.770Z,15.45
2023-06-01T04:42:05.111Z,15.00
2023-06-01T04:44:34.931Z,14.23
2023-06-01T04:47:04.833Z,12.90
2023-06-01T04:49:32.324Z,13.75
2023-06-01T04:52:01.448Z,14.63
2023-06-01T04:54:28.923Z,13.50
2023-06-01T04:56:56.674Z,17.02
2023-06-01T04:59:24.038Z,15.50
2023-06-01T05:01:52.910Z,14.50
2023-06-01T05:04:22.040Z,14.85
2023-06-01T05:06:52.250Z,13.73
2023-06-01T05:09:21.839Z,12.52
2023-06-01T05:11:49.596Z,11.55
2023-06-01T05:14:16.976Z,15.30
2023-06-01T05:16:45.264Z,13.00
2023-06-01T05:19:14.131Z,14.75
2023-06-01T05:21:45.086Z,11.85
2023-06-01T05:24:13.674Z,12.85
2023-06-01T05:26:41.680Z,12.65
2023-06-01T05:29:09.084Z,12.20
2023-06-01T05:31:37.563Z,11.30
2023-06-01T05:34:07.274Z,11.05
2023-06-01T05:36:36.824Z,13.40
2023-06-01T05:39:04.323Z,12.82
2023-06-01T05:41:31.958Z,12.32
2023-06-01T05:43:59.489Z,12.15
2023-06-01T05:46:28.475Z,11.88
2023-06-01T05:48:56.769Z,11.48
2023-06-01T05:51:26.795Z,11.68
2023-06-01T05:53:56.059Z,11.10
2023-06-01T05:56:24.987Z,10.75
2023-06-01T05:58:59.908Z,9.23
2023-06-01T06:01:28.537Z,9.00
2023-06-01T06:04:01.258Z,7.57
2023-06-01T06:06:30.065Z,7.43
2023-06-01T06:08:57.481Z,7.03
2023-06-01T06:11:28.582Z,7.65
2023-06-01T06:13:56.034Z,7.55
2023-06-01T06:16:25.470Z,7.78
2023-06-01T06:18:55.900Z,7.38
2023-06-01T06:21:24.877Z,6.28
2023-06-01T06:23:54.285Z,6.57
2023-06-01T06:26:21.913Z,6.55
2023-06-01T06:28:50.588Z,5.82
2023-06-01T06:31:18.338Z,6.78
2023-06-01T06:33:46.697Z,7.05
2023-06-01T06:36:15.578Z,8.30
2023-06-01T06:38:44.853Z,7.57
2023-06-01T06:41:15.415Z,9.90
2023-06-01T06:43:45.074Z,9.82
2023-06-01T06:46:19.918Z,8.50
2023-06-01T06:48:49.714Z,7.80
2023-06-01T06:51:18.291Z,7.15
2023-06-01T06:53:45.908Z,7.65
2023-06-01T06:56:13.935Z,7.55
2023-06-01T06:58:41.258Z,7.10
2023-06-01T07:03:39.862Z,8.20
2023-06-01T07:06:10.106Z,6.85
2023-06-01T07:08:38.442Z,5.85
2023-06-01T07:11:06.101Z,5.15
2023-06-01T07:13:33.518Z,5.57
2023-06-01T07:16:01.776Z,6.65
2023-06-01T07:18:30.538Z,6.18
2023-06-01T07:20:59.736Z,5.15
2023-06-01T07:23:43.093Z,6.18
2023-06-01T07:26:17.392Z,6.63
2023-06-01T07:28:45.340Z,5.82
2023-06-01T07:31:13.278Z,6.13
2023-06-01T07:33:44.359Z,5.40
2023-06-01T07:36:15.585Z,6.03
2023-06-01T07:38:47.707Z,5.18
2023-06-01T07:41:25.866Z,4.88
2023-06-01T07:44:27.683Z,5.53
2023-06-01T07:46:58.942Z,6.38
2023-06-01T07:49:33.474Z,5.25
2023-06-01T07:52:09.083Z,6.72
2023-06-01T07:54:38.430Z,6.10
2023-06-01T07:57:09.215Z,6.00
2023-06-01T07:59:36.694Z,5.78
2023-06-01T08:02:04.597Z,6.43
2023-06-01T08:04:35.604Z,8.23
2023-06-01T08:07:04.866Z,8.07
2023-06-01T08:09:43.738Z,8.98
2023-06-01T08:12:12.546Z,7.75
2023-06-01T08:14:41.222Z,9.07
2023-06-01T08:17:09.585Z,7.20
2023-06-01T08:19:40.113Z,6.88
2023-06-01T08:22:38.811Z,6.75
2023-06-01T08:25:17.312Z,7.15
2023-06-01T08:28:01.554Z,6.28
2023-06-01T08:31:02.622Z,5.88
2023-06-01T08:34:21.124Z,6.72
2023-06-01T08:37:06.884Z,7.97
2023-06-01T08:39:47.468Z,6.85
2023-06-01T08:42:34.724Z,8.03
2023-06-01T08:45:11.879Z,11.10
2023-06-01T08:48:00.814Z,9.50
2023-06-01T08:50:38.605Z,10.80
2023-06-01T08:53:25.993Z,9.77
2023-06-01T08:59:21.790Z,10.30
2023-06-01T09:02:58.252Z,9.95
2023-06-01T09:05:41.931Z,9.45
2023-06-01T09:08:14.127Z,10.23
2023-06-01T09:14:59.179Z,9.90
2023-06-01T09:18:08.642Z,11.52
2023-06-01T09:21:04.799Z,9.45
2023-06-01T09:31:22.223Z,9.27
2023-06-01T09:34:20.532Z,9.70
2023-06-01T09:37:23.361Z,9.45
2023-06-01T09:39:58.488Z,10.07
2023-06-01T09:42:36.483Z,9.75
2023-06-01T09:45:24.232Z,10.10
2023-06-01T09:48:30.183Z,9.60
2023-06-01T09:51:41.987Z,9.68
2023-06-01T09:55:01.982Z,10.18
2023-06-01T09:58:32.195Z,9.57
2023-06-01T10:04:24.588Z,9.27
2023-06-01T10:07:30.318Z,9.18
2023-06-01T10:10:08.763Z,10.93
2023-06-01T10:12:59.397Z,9.63
2023-06-01T10:15:32.130Z,8.07
2023-06-01T10:18:20.866Z,8.55
2023-06-01T10:20:52.802Z,8.65
2023-06-01T10:23:30.839Z,8.43
2023-06-01T10:26:09.709Z,8.43
2023-06-01T10:28:45.533Z,8.45
2023-06-01T10:31:48.268Z,8.57
2023-06-01T10:34:48.690Z,8.80
2023-06-01T10:40:28.266Z,8.35
2023-06-01T10:43:12.443Z,7.43
2023-06-01T10:45:45.648Z,10.05
2023-06-01T10:48:16.747Z,7.97
2023-06-01T10:51:37.174Z,8.15
2023-06-01T10:54:33.175Z,11.32
2023-06-01T10:57:33.566Z,10.32
2023-06-01T11:00:40.777Z,10.90
2023-06-01T11:03:22.459Z,11.18
2023-06-01T11:06:07.627Z,11.43
2023-06-01T11:09:00.366Z,11.57
2023-06-01T11:11:59.746Z,10.95
2023-06-01T11:14:33.532Z,10.48
2023-06-01T11:17:29.950Z,11.45
2023-06-01T11:20:09.131Z,11.43
2023-06-01T11:22:45.151Z,11.25
2023-06-01T11:25:19.057Z,10.35
2023-06-01T11:27:56.960Z,10.48
2023-06-01T11:30:33.688Z,10.45
2023-06-01T11:33:08.317Z,10.70
2023-06-01T11:35:44.001Z,10.00
2023-06-01T11:38:22.418Z,9.60
2023-06-01T11:41:09.406Z,9.23
2023-06-01T11:43:42.795Z,8.70
2023-06-01T11:46:22.188Z,9.30
2023-06-01T11:49:06.804Z,8.57
2023-06-01T11:51:43.412Z,9.38
2023-06-01T11:54:13.921Z,8.85
2023-06-01T11:56:48.418Z,8.43
2023-06-01T11:59:23.790Z,9.07
2023-06-01T12:01:54.952Z,9.40
2023-06-01T12:04:26.661Z,9.40
2023-06-01T12:07:18.474Z,10.98
2023-06-01T12:09:51.886Z,10.93
2023-06-01T12:12:27.003Z,11.35
2023-06-01T12:14:58.837Z,10.63
2023-06-01T12:17:59.811Z,10.50
2023-06-01T12:20:40.950Z,9.73
2023-06-01T12:23:26.402Z,10.27
2023-06-01T12:26:00.207Z,10.05
2023-06-01T12:28:30.919Z,10.35
2023-06-01T12:31:26.403Z,9.63
2023-06-01T12:36:40.602Z,9.00
2023-06-01T12:39:16.486Z,8.45
2023-06-01T12:41:53.170Z,8.30
2023-06-01T12:44:59.523Z,7.70
2023-06-01T12:47:48.055Z,7.57
2023-06-01T12:50:30.093Z,7.50
2023-06-01T12:53:01.321Z,8.48
2023-06-01T12:55:32.657Z,7.50
2023-06-01T12:58:05.374Z,10.63
2023-06-01T13:00:56.327Z,7.93
2023-06-01T13:03:27.173Z,8.48
2023-06-01T13:05:57.015Z,7.85
2023-06-01T13:08:31.410Z,8.13
2023-06-01T13:13:40.759Z,7.40
2023-06-01T13:16:14.018Z,7.78
2023-06-01T13:19:05.480Z,7.38
2023-06-01T13:21:35.232Z,7.00
2023-06-01T13:24:10.219Z,9.80
2023-06-01T13:26:40.216Z,8.20
2023-06-01T13:29:08.623Z,7.50
2023-06-01T13:31:41.599Z,8.35
2023-06-01T13:34:15.040Z,9.90
2023-06-01T13:36:47.462Z,7.65
2023-06-01T13:39:16.987Z,8.80
2023-06-01T13:41:47.340Z,8.55
2023-06-01T13:44:24.166Z,8.90
2023-06-01T13:47:03.135Z,9.63
2023-06-01T13:49:32.518Z,8.98
2023-06-01T13:52:04.789Z,9.77
2023-06-01T13:54:43.761Z,9.88
2023-06-01T13:57:36.921Z,10.63
2023-06-01T14:03:06.440Z,9.90
2023-06-01T14:05:51.690Z,9.13
2023-06-01T14:08:23.972Z,9.70
2023-06-01T14:10:55.349Z,11.90
2023-06-01T14:13:23.219Z,10.35
2023-06-01T14:15:51.441Z,9.88
2023-06-01T14:18:18.901Z,14.10
2023-06-01T14:20:49.736Z,11.68
2023-06-01T14:23:19.920Z,9.23
2023-06-01T14:25:49.065Z,9.57
2023-06-01T14:28:16.576Z,16.88
2023-06-01T14:30:45.003Z,9.20
2023-06-01T14:33:14.281Z,9.80
2023-06-01T14:35:43.679Z,11.40
2023-06-01T14:38:15.912Z,9.60
2023-06-01T14:40:44.100Z,8.68
2023-06-01T14:43:15.568Z,9.27
2023-06-01T14:45:45.042Z,8.60
2023-06-01T14:48:12.854Z,4.32
2023-06-01T14:50:40.648Z,4.47
2023-06-01T14:53:08.918Z,3.60
2023-06-01T14:55:36.663Z,3.80
2023-06-01T14:58:04.134Z,4.60
2023-06-01T15:00:32.174Z,3.95
2023-06-01T15:03:00.124Z,4.20
2023-06-01T15:05:27.970Z,4.35
2023-06-01T15:07:55.332Z,4.00
2023-06-01T15:10:23.741Z,4.03
2023-06-01T15:12:53.058Z,4.10
2023-06-01T15:15:28.677Z,5.55
2023-06-01T15:17:56.849Z,4.28
2023-06-01T15:20:30.878Z,4.90
2023-06-01T15:23:02.773Z,4.88
2023-06-01T15:25:30.830Z,4.88
2023-06-01T15:27:58.463Z,4.38
2023-06-01T15:30:26.739Z,5.40
2023-06-01T15:33:07.511Z,5.90
2023-06-01T15:35:38.332Z,5.00
2023-06-01T15:38:05.982Z,4.00
2023-06-01T15:40:34.157Z,4.60
2023-06-01T15:43:02.984Z,4.00
2023-06-01T15:45:31.582Z,5.68
2023-06-01T15:47:58.965Z,4.82
2023-06-01T15:50:27.712Z,4.80
2023-06-01T15:52:55.031Z,4.65
2023-06-01T15:55:23.222Z,5.07
2023-06-01T15:57:50.756Z,3.83
2023-06-01T16:00:19.107Z,4.85
2023-06-01T16:02:46.726Z,5.38
2023-06-01T16:05:15.369Z,4.65
2023-06-01T16:07:42.631Z,4.30
2023-06-01T16:10:10.675Z,3.28
2023-06-01T16:12:37.982Z,3.08
2023-06-01T16:15:06.210Z,3.22
2023-06-01T16:17:35.230Z,2.83
2023-06-01T16:20:07.521Z,2.95
2023-06-01T16:22:38.095Z,3.20
2023-06-01T16:25:06.169Z,4.18
2023-06-01T16:27:34.382Z,3.20
2023-06-01T16:30:05.656Z,3.30
2023-06-01T16:32:36.059Z,3.42
2023-06-01T16:35:04.165Z,3.50
2023-06-01T16:37:31.415Z,3.67
2023-06-01T16:40:01.134Z,3.05
2023-06-01T16:42:29.302Z,3.35
2023-06-01T16:44:57.326Z,3.38
2023-06-01T16:47:25.811Z,3.30
2023-06-01T16:50:20.953Z,4.68
2023-06-01T16:52:48.470Z,4.07
2023-06-01T16:55:17.969Z,3.97
2023-06-01T16:57:50.162Z,6.93
2023-06-01T17:00:18.646Z,6.35
2023-06-01T17:02:46.950Z,6.20
2023-06-01T17:05:14.660Z,5.30
2023-06-01T17:07:44.240Z,5.63
2023-06-01T17:10:12.496Z,5.90
2023-06-01T17:12:42.155Z,6.45
2023-06-01T17:15:20.267Z,5.63
2023-06-01T17:17:54.932Z,5.97
2023-06-01T17:20:30.183Z,5.40
2023-06-01T17:23:02.422Z,5.28
2023-06-01T17:25:37.336Z,6.97
2023-06-01T17:28:14.669Z,5.65
2023-06-01T17:30:45.162Z,5.70
2023-06-01T17:33:17.218Z,6.25
2023-06-01T17:35:55.513Z,7.45
2023-06-01T17:38:28.766Z,6.28
2023-06-01T17:41:01.027Z,5.60
2023-06-01T17:43:31.277Z,4.75
2023-06-01T17:46:02.021Z,5.05
2023-06-01T17:48:31.854Z,4.85
2023-06-01T17:51:02.890Z,4.72
2023-06-01T17:53:41.535Z,4.50
2023-06-01T17:56:12.496Z,5.93
2023-06-01T17:58:41.616Z,4.72
2023-06-01T18:01:17.085Z,5.80
2023-06-01T18:03:52.371Z,5.93
2023-06-01T18:06:21.507Z,5.85
2023-06-01T18:08:56.286Z,5.82
2023-06-01T18:11:28.547Z,7.28
2023-06-01T18:14:03.124Z,5.18
2023-06-01T18:16:35.414Z,5.07
2023-06-01T18:19:05.746Z,5.60
2023-06-01T18:21:43.783Z,5.90
2023-06-01T18:24:20.202Z,6.40
2023-06-01T18:26:54.320Z,6.10
2023-06-01T18:29:29.785Z,6.20
2023-06-01T18:32:02.053Z,6.85
2023-06-01T18:34:29.885Z,9.00
2023-06-01T18:36:59.932Z,7.28
2023-06-01T18:39:39.519Z,9.73
2023-06-01T18:42:09.402Z,8.63
2023-06-01T18:44:39.628Z,10.23
2023-06-01T18:47:10.591Z,9.30
2023-06-01T18:49:46.454Z,9.82
2023-06-01T18:52:20.481Z,11.18
2023-06-01T18:54:49.702Z,9.43
2023-06-01T18:57:42.759Z,7.68
2023-06-01T19:00:25.063Z,7.68
2023-06-01T19:03:07.360Z,7.00
2023-06-01T19:05:38.960Z,8.30
2023-06-01T19:08:09.679Z,8.20
2023-06-01T19:10:48.238Z,7.22
2023-06-01T19:13:19.196Z,7.93
2023-06-01T19:16:26.965Z,8.07
2023-06-01T19:19:01.262Z,8.95
2023-06-01T19:21:33.946Z,7.78
2023-06-01T19:24:06.842Z,7.80
2023-06-01T19:26:38.024Z,7.60
2023-06-01T19:29:08.113Z,8.15
2023-06-01T19:31:45.146Z,6.47
2023-06-01T19:34:15.002Z,6.30
2023-06-01T19:36:55.721Z,7.50
2023-06-01T19:39:33.244Z,6.65
2023-06-01T19:42:30.610Z,6.22
2023-06-01T19:45:01.580Z,7.53
2023-06-01T19:47:36.000Z,8.07
2023-06-01T19:50:17.396Z,8.32
2023-06-01T19:52:45.774Z,7.45
2023-06-01T19:55:13.518Z,8.82
2023-06-01T19:57:41.124Z,7.70
2023-06-01T20:00:09.956Z,7.88
2023-06-01T20:02:49.319Z,8.63
2023-06-01T20:05:23.554Z,9.70
2023-06-01T20:08:02.596Z,9.30
2023-06-01T20:10:33.554Z,9.48
2023-06-01T20:13:06.832Z,8.48
2023-06-01T20:15:41.887Z,8.32
2023-06-01T20:18:09.514Z,8.65
2023-06-01T20:20:41.657Z,7.88
2023-06-01T20:23:31.226Z,8.20
2023-06-01T20:26:02.531Z,9.00
2023-06-01T20:28:45.446Z,9.05
2023-06-01T20:33:44.951Z,10.13
2023-06-01T20:36:13.067Z,9.07
2023-06-01T20:38:43.624Z,12.40
2023-06-01T20:41:17.702Z,8.38
2023-06-01T20:43:47.884Z,10.43
2023-06-01T20:46:15.711Z,12.27
2023-06-01T20:48:49.165Z,10.50
2023-06-01T20:51:34.809Z,10.90
2023-06-01T20:54:07.523Z,10.18
2023-06-01T20:56:40.280Z,12.27
2023-06-01T20:59:18.318Z,11.80
2023-06-01T21:01:49.605Z,11.73
2023-06-01T21:04:19.655Z,10.45
2023-06-01T21:06:50.148Z,11.85
2023-06-01T21:09:22.976Z,10.50
2023-06-01T21:11:52.783Z,11.80
2023-06-01T21:14:22.062Z,11.27
2023-06-01T21:16:49.959Z,11.60
2023-06-01T21:19:19.598Z,11.73
2023-06-01T21:21:50.591Z,12.13
2023-06-01T21:24:18.110Z,10.73
2023-06-01T21:26:46.974Z,10.57
2023-06-01T21:29:14.405Z,9.82
2023-06-01T21:31:42.138Z,9.52
2023-06-01T21:34:09.597Z,9.65
2023-06-01T21:36:38.185Z,8.65
2023-06-01T21:39:05.573Z,10.15
2023-06-01T21:41:34.455Z,9.77
2023-06-01T21:44:03.922Z,9.63
2023-06-01T21:46:31.873Z,9.65
2023-06-01T21:48:59.463Z,10.23
2023-06-01T21:51:27.225Z,10.93
2023-06-01T21:53:55.600Z,11.88
2023-06-01T21:56:23.336Z,10.38
2023-06-01T21:58:50.697Z,9.35
2023-06-01T22:01:22.823Z,10.68
2023-06-01T22:03:50.464Z,11.98
2023-06-01T22:06:19.517Z,13.30
2023-06-01T22:08:47.116Z,13.85
2023-06-01T22:11:14.776Z,13.45
2023-06-01T22:13:42.251Z,12.68
2023-06-01T22:16:10.011Z,12.10
2023-06-01T22:18:38.836Z,13.65
2023-06-01T22:21:06.639Z,21.67
2023-06-01T22:23:34.135Z,15.45
2023-06-01T22:26:01.801Z,14.88
2023-06-01T22:28:29.518Z,14.43
2023-06-01T22:30:57.519Z,13.60
2023-06-01T22:33:25.725Z,12.68
2023-06-01T22:35:54.293Z,13.25
2023-06-01T22:38:21.750Z,15.02
2023-06-01T22:40:49.765Z,13.05
2023-06-01T22:43:17.435Z,15.18
2023-06-01T22:45:45.109Z,14.98
2023-06-01T22:48:13.350Z,13.95
2023-06-01T22:50:41.600Z,15.18
2023-06-01T22:53:09.478Z,11.25
2023-06-01T22:55:37.636Z,11.27
2023-06-01T22:58:04.980Z,12.30
2023-06-01T23:00:32.828Z,11.25
2023-06-01T23:03:00.347Z,10.40
2023-06-01T23:05:30.402Z,10.77
2023-06-01T23:07:57.976Z,10.05
2023-06-01T23:10:29.536Z,9.93
2023-06-01T23:12:58.159Z,11.10
2023-06-01T23:15:25.855Z,10.70
2023-06-01T23:17:54.886Z,10.45
2023-06-01T23:20:26.145Z,9.63
2023-06-01T23:22:54.439Z,10.27
2023-06-01T23:25:22.159Z,10.13
2023-06-01T23:27:49.495Z,9.82
2023-06-01T23:30:17.411Z,10.60
2023-06-01T23:32:44.802Z,9.45
2023-06-01T23:35:12.711Z,10.25
2023-06-01T23:37:40.107Z,9.65
2023-06-01T23:40:11.202Z,10.77
2023-06-01T23:42:41.183Z,9.35
2023-06-01T23:45:09.496Z,9.98
2023-06-01T23:47:39.669Z,10.68
2023-06-01T23:50:09.180Z,12.10
2023-06-01T23:52:40.700Z,10.80
2023-06-01T23:55:09.823Z,10.88
2023-06-01T23:57:37.124Z,10.00
